KRUT

Rutland-Southern Vermont Regional Airport

Airport
ICAO code
KRUT
Summary
ICAO Region
NAM
ICAO Territory
Location

Rutland. Vermont,

Coordinates
43° 31' 40" N , 72° 56' 43" W
KCC
Airport WX
Cumulonimbus
Metar
KRUT 151956Z AUTO 33009G14KT 10SM CLR 19/08 A3006 RMK AO2 SLP172 T01940083 $

Description

Rutland–Southern Vermont Regional Airport is a public use airport located 9 km south of the central business district of Rutland, a city in Rutland County, Vermont.

Climatology

Humid Continental climate (Köppen climate classification Dfb) - Variable weather patterns and a large seasonal temperature variance. Summers are often warm and humid with frequent thunderstorms and winters can be very cold with frequent snowfall and persistent snow cover.

Runways

Designator Length Width Surface Rops
13/31 966 23 ASP Yes/Yes
1/19 1524 30 ASP Yes/Yes

Airport map

Aerial View

SKYbrary Partners:

Safety knowledge contributed by: